createdAt,value
2018-07-23T00:02:06.968Z,26.78
2018-07-23T00:04:37.261Z,27.02
2018-07-23T00:07:08.145Z,27.07
2018-07-23T00:09:38.888Z,27.39
2018-07-23T00:12:09.785Z,27.53
2018-07-23T00:14:40.061Z,27.82
2018-07-23T00:17:10.485Z,27.82
2018-07-23T00:19:40.753Z,27.83
2018-07-23T00:22:11.535Z,27.62
2018-07-23T00:24:41.769Z,27.44
2018-07-23T00:27:12.173Z,27.56
2018-07-23T00:29:42.473Z,27.48
2018-07-23T00:32:12.916Z,27.47
2018-07-23T00:34:43.194Z,27.54
2018-07-23T00:37:13.721Z,27.52
2018-07-23T00:39:43.993Z,27.36
2018-07-23T00:42:14.381Z,27.34
2018-07-23T00:44:44.650Z,27.19
2018-07-23T00:47:15.086Z,26.87
2018-07-23T00:49:45.637Z,26.78
2018-07-23T00:52:16.385Z,26.46
2018-07-23T00:54:46.617Z,26.49
2018-07-23T00:57:40.685Z,26.66
2018-07-23T01:00:18.321Z,26.21
2018-07-23T01:02:49.192Z,26.29
2018-07-23T01:05:19.444Z,26.65
2018-07-23T01:07:49.921Z,26.77
2018-07-23T01:10:43.034Z,26.76
2018-07-23T01:13:13.816Z,26.13
2018-07-23T01:15:44.492Z,25.40
2018-07-23T01:18:15.489Z,24.51
2018-07-23T01:20:46.072Z,24.24
2018-07-23T01:23:16.793Z,24.52
2018-07-23T01:25:47.532Z,24.51
2018-07-23T01:28:18.397Z,24.37
2018-07-23T01:30:49.064Z,24.09
2018-07-23T01:33:19.748Z,24.13
2018-07-23T01:35:50.376Z,23.87
2018-07-23T01:38:20.621Z,23.92
2018-07-23T01:40:51.621Z,24.22
2018-07-23T01:43:22.093Z,24.51
2018-07-23T01:45:52.893Z,24.51
2018-07-23T01:48:23.448Z,24.48
2018-07-23T01:50:53.985Z,24.77
2018-07-23T01:53:24.596Z,24.92
2018-07-23T01:55:55.417Z,25.22
2018-07-23T01:58:26.112Z,25.30
2018-07-23T02:00:56.866Z,25.14
2018-07-23T02:03:27.541Z,25.30
2018-07-23T02:05:58.157Z,25.39
2018-07-23T02:08:28.989Z,25.45
2018-07-23T02:10:59.256Z,25.50
2018-07-23T02:13:29.681Z,25.43
2018-07-23T02:16:00.141Z,25.38
2018-07-23T02:18:30.749Z,25.39
2018-07-23T02:21:01.160Z,25.24
2018-07-23T02:23:31.440Z,25.25
2018-07-23T02:26:01.785Z,25.11
2018-07-23T02:28:32.012Z,25.20
2018-07-23T02:31:02.241Z,25.14
2018-07-23T02:33:32.532Z,24.93
2018-07-23T02:36:02.753Z,24.81
2018-07-23T02:38:33.060Z,24.86
2018-07-23T02:41:03.387Z,24.79
2018-07-23T02:43:33.918Z,24.99
2018-07-23T02:46:04.254Z,24.79
2018-07-23T02:48:35.001Z,24.93
2018-07-23T02:51:05.349Z,25.01
2018-07-23T02:53:35.663Z,24.94
2018-07-23T02:56:06.053Z,24.91
2018-07-23T02:58:36.620Z,25.15
2018-07-23T03:01:06.953Z,25.13
2018-07-23T03:03:37.479Z,25.07
2018-07-23T03:06:07.717Z,25.21
2018-07-23T03:08:38.341Z,25.24
2018-07-23T03:11:08.765Z,25.30
2018-07-23T03:13:39.233Z,25.18
2018-07-23T03:16:09.705Z,25.27
2018-07-23T03:18:40.343Z,25.39
2018-07-23T03:21:10.576Z,25.25
2018-07-23T03:23:40.888Z,25.27
2018-07-23T03:26:11.221Z,25.26
2018-07-23T03:28:42.759Z,25.13
2018-07-23T03:31:13.160Z,25.28
2018-07-23T03:33:43.524Z,25.48
2018-07-23T03:36:13.929Z,25.60
2018-07-23T03:38:44.328Z,25.47
2018-07-23T03:41:14.909Z,25.60
2018-07-23T03:43:45.265Z,25.45
2018-07-23T03:46:15.669Z,25.42
2018-07-23T03:48:46.014Z,25.46
2018-07-23T03:51:16.426Z,25.48
2018-07-23T03:53:46.822Z,25.48
2018-07-23T03:56:17.281Z,25.43
2018-07-23T03:58:47.663Z,25.48
2018-07-23T04:01:18.326Z,25.50
2018-07-23T04:03:48.674Z,25.61
2018-07-23T04:06:19.065Z,25.64
2018-07-23T04:08:49.410Z,25.57
2018-07-23T04:11:20.195Z,25.64
2018-07-23T04:13:50.574Z,25.70
2018-07-23T04:16:20.985Z,25.74
2018-07-23T04:18:51.342Z,25.66
2018-07-23T04:21:22.494Z,25.80
2018-07-23T04:23:52.838Z,25.98
2018-07-23T04:26:23.285Z,26.00
2018-07-23T04:28:53.646Z,25.90
2018-07-23T04:31:24.463Z,26.28
2018-07-23T04:33:54.822Z,26.27
2018-07-23T04:36:25.224Z,26.60
2018-07-23T04:38:55.645Z,26.93
2018-07-23T04:41:26.023Z,27.09
2018-07-23T04:43:56.360Z,27.20
2018-07-23T04:46:26.846Z,27.01
2018-07-23T04:48:57.214Z,27.06
2018-07-23T04:51:27.874Z,27.30
2018-07-23T04:53:58.222Z,27.54
2018-07-23T04:56:28.818Z,27.66
2018-07-23T04:58:59.226Z,27.87
2018-07-23T05:01:29.890Z,28.39
2018-07-23T05:04:00.578Z,28.47
2018-07-23T05:06:31.662Z,29.04
2018-07-23T05:09:02.017Z,29.43
2018-07-23T05:11:32.605Z,29.67
2018-07-23T05:14:03.011Z,29.93
2018-07-23T05:16:33.664Z,30.05
2018-07-23T05:19:04.034Z,30.28
2018-07-23T05:21:34.441Z,30.43
2018-07-23T05:24:04.700Z,30.15
2018-07-23T05:26:35.420Z,30.21
2018-07-23T05:29:05.687Z,29.95
2018-07-23T05:31:36.317Z,30.47
2018-07-23T05:34:06.626Z,30.17
2018-07-23T05:36:37.012Z,30.08
2018-07-23T05:39:10.945Z,30.61
2018-07-23T05:41:41.708Z,30.91
2018-07-23T05:44:11.948Z,30.62
2018-07-23T05:46:42.236Z,31.01
2018-07-23T05:49:12.509Z,31.34
2018-07-23T05:51:42.790Z,31.53
2018-07-23T05:54:13.376Z,31.89
2018-07-23T05:56:43.677Z,31.49
2018-07-23T05:59:13.952Z,31.24
2018-07-23T06:01:44.909Z,31.67
2018-07-23T06:04:15.428Z,31.99
2018-07-23T06:06:45.996Z,31.14
2018-07-23T06:09:16.564Z,31.47
2018-07-23T06:11:47.060Z,31.74
2018-07-23T06:14:17.288Z,32.06
2018-07-23T06:16:48.009Z,32.20
2018-07-23T06:19:18.284Z,32.16
2018-07-23T06:21:48.596Z,31.88
2018-07-23T06:24:19.376Z,32.23
2018-07-23T06:26:50.173Z,32.19
2018-07-23T06:29:20.892Z,32.61
2018-07-23T06:31:51.709Z,32.40
2018-07-23T06:34:22.332Z,32.79
2018-07-23T06:36:53.050Z,32.83
2018-07-23T06:39:23.383Z,31.89
2018-07-23T06:41:54.077Z,32.51
2018-07-23T06:44:24.886Z,33.05
2018-07-23T06:46:55.652Z,33.32
2018-07-23T06:49:26.304Z,33.25
2018-07-23T06:51:56.453Z,33.11
2018-07-23T06:54:27.029Z,33.64
2018-07-23T06:56:57.845Z,33.66
2018-07-23T06:59:28.504Z,32.78
2018-07-23T07:01:59.281Z,32.87
2018-07-23T07:04:29.891Z,34.14
2018-07-23T07:06:59.972Z,34.27
2018-07-23T07:09:30.997Z,34.12
2018-07-23T07:12:01.568Z,34.65
2018-07-23T07:14:32.402Z,34.53
2018-07-23T07:17:03.106Z,35.05
2018-07-23T07:19:33.780Z,35.18
2018-07-23T07:22:04.429Z,35.91
2018-07-23T07:24:35.308Z,35.84
2018-07-23T07:27:06.061Z,35.81
2018-07-23T07:29:36.960Z,36.11
2018-07-23T07:32:07.701Z,36.22
2018-07-23T07:34:38.783Z,36.83
2018-07-23T07:37:09.437Z,36.08
2018-07-23T07:39:40.260Z,36.86
2018-07-23T07:42:10.816Z,36.15
2018-07-23T07:44:41.596Z,36.33
2018-07-23T07:47:12.142Z,35.68
2018-07-23T07:49:42.288Z,35.89
2018-07-23T07:52:13.006Z,36.69
2018-07-23T07:54:44.129Z,36.67
2018-07-23T07:57:14.676Z,36.73
2018-07-23T07:59:45.513Z,36.43
2018-07-23T08:02:15.932Z,37.36
2018-07-23T08:04:47.128Z,37.03
2018-07-23T08:07:17.762Z,36.22
2018-07-23T08:09:48.604Z,36.47
2018-07-23T08:12:19.308Z,36.68
2018-07-23T08:14:49.984Z,36.13
2018-07-23T08:17:20.049Z,37.03
2018-07-23T08:19:50.685Z,36.93
2018-07-23T08:22:21.382Z,37.79
2018-07-23T08:24:52.097Z,37.98
2018-07-23T08:27:22.757Z,37.08
2018-07-23T08:29:53.571Z,37.39
2018-07-23T08:32:24.381Z,37.99
2018-07-23T08:34:55.225Z,37.19
2018-07-23T08:37:26.014Z,37.64
2018-07-23T08:39:56.877Z,38.19
2018-07-23T08:42:27.376Z,39.14
2018-07-23T08:44:58.272Z,38.17
2018-07-23T08:47:28.832Z,38.73
2018-07-23T08:49:59.577Z,38.86
2018-07-23T08:52:30.363Z,38.99
2018-07-23T08:55:00.496Z,36.90
2018-07-23T08:57:31.301Z,37.93
2018-07-23T09:00:02.090Z,37.76
2018-07-23T09:02:32.812Z,37.16
2018-07-23T09:05:03.613Z,38.50
2018-07-23T09:07:34.184Z,38.30
2018-07-23T09:10:05.092Z,39.71
2018-07-23T09:12:35.634Z,39.12
2018-07-23T09:15:06.741Z,37.37
2018-07-23T09:17:37.425Z,38.33
2018-07-23T09:20:08.521Z,38.89
2018-07-23T09:22:39.158Z,40.33
2018-07-23T09:25:09.948Z,40.63
2018-07-23T09:27:40.593Z,38.90
2018-07-23T09:30:16.468Z,38.99
2018-07-23T09:32:47.053Z,39.64
2018-07-23T09:35:17.842Z,38.74
2018-07-23T09:37:48.405Z,39.15
2018-07-23T09:40:19.141Z,37.46
2018-07-23T09:42:49.780Z,37.90
2018-07-23T09:45:20.665Z,37.83
2018-07-23T09:47:51.302Z,37.90
2018-07-23T09:50:22.097Z,38.78
2018-07-23T09:52:52.508Z,38.46
2018-07-23T09:55:23.248Z,39.22
2018-07-23T09:57:53.930Z,38.99
2018-07-23T10:01:28.450Z,38.64
2018-07-23T10:03:59.246Z,40.23
2018-07-23T10:06:29.921Z,39.67
2018-07-23T10:09:00.590Z,39.15
2018-07-23T10:11:31.489Z,40.60
2018-07-23T10:14:02.073Z,40.29
2018-07-23T10:16:32.909Z,38.87
2018-07-23T10:19:03.602Z,39.43
2018-07-23T10:21:34.319Z,38.94
2018-07-23T10:24:04.992Z,38.87
2018-07-23T10:26:35.784Z,38.73
2018-07-23T10:29:06.429Z,39.81
2018-07-23T10:31:37.232Z,39.33
2018-07-23T10:34:08.036Z,40.16
2018-07-23T10:36:38.302Z,40.51
2018-07-23T10:39:11.227Z,40.51
2018-07-23T10:41:42.093Z,41.15
2018-07-23T10:44:12.783Z,41.64
2018-07-23T10:46:43.634Z,41.02
2018-07-23T10:49:14.209Z,41.57
2018-07-23T10:51:45.171Z,42.80
2018-07-23T10:54:15.809Z,42.65
2018-07-23T10:56:46.685Z,41.98
2018-07-23T10:59:17.375Z,41.53
2018-07-23T11:01:48.049Z,42.10
2018-07-23T11:04:18.313Z,42.23
2018-07-23T11:06:49.140Z,40.71
2018-07-23T11:09:19.892Z,40.10
2018-07-23T11:11:51.055Z,39.31
2018-07-23T11:14:21.826Z,40.20
2018-07-23T11:16:52.570Z,40.43
2018-07-23T11:19:23.260Z,39.21
2018-07-23T11:21:54.280Z,39.19
2018-07-23T11:24:24.930Z,39.52
2018-07-23T11:26:55.956Z,39.50
2018-07-23T11:29:26.634Z,39.58
2018-07-23T11:31:57.390Z,38.68
2018-07-23T11:34:28.110Z,38.85
2018-07-23T11:36:58.797Z,39.29
2018-07-23T11:39:29.369Z,38.73
2018-07-23T11:42:00.250Z,37.84
2018-07-23T11:44:31.019Z,36.21
2018-07-23T11:47:01.869Z,36.58
2018-07-23T11:49:32.661Z,36.36
2018-07-23T11:52:03.805Z,35.97
2018-07-23T11:54:34.440Z,35.91
2018-07-23T11:57:05.309Z,36.10
2018-07-23T11:59:35.981Z,35.75
2018-07-23T12:02:07.181Z,35.72
2018-07-23T12:04:37.961Z,35.28
2018-07-23T12:07:09.139Z,34.88
2018-07-23T12:09:39.677Z,34.98
2018-07-23T12:12:10.307Z,35.46
2018-07-23T12:14:40.886Z,35.68
2018-07-23T12:17:11.671Z,35.67
2018-07-23T12:19:42.276Z,35.21
2018-07-23T12:22:13.044Z,35.20
2018-07-23T12:24:43.766Z,35.44
2018-07-23T12:27:14.289Z,36.03
2018-07-23T12:29:44.853Z,35.89
2018-07-23T12:32:15.840Z,35.76
2018-07-23T12:34:46.416Z,35.52
2018-07-23T12:37:17.257Z,35.09
2018-07-23T12:39:47.947Z,35.48
2018-07-23T12:42:18.722Z,36.00
2018-07-23T12:44:49.404Z,36.04
2018-07-23T12:47:20.223Z,36.74
2018-07-23T12:49:50.881Z,38.04
2018-07-23T12:52:21.624Z,38.63
2018-07-23T12:54:51.848Z,38.77
2018-07-23T12:57:22.826Z,37.97
2018-07-23T12:59:53.624Z,38.61
2018-07-23T13:02:24.456Z,38.56
2018-07-23T13:04:55.269Z,38.35
2018-07-23T13:07:26.015Z,38.12
2018-07-23T13:09:56.430Z,39.02
2018-07-23T13:12:27.149Z,39.03
2018-07-23T13:14:58.157Z,39.43
2018-07-23T13:17:28.820Z,38.90
2018-07-23T13:19:59.512Z,38.96
2018-07-23T13:22:30.089Z,38.43
2018-07-23T13:25:00.443Z,39.08
2018-07-23T13:27:30.960Z,39.21
2018-07-23T13:30:01.632Z,38.23
2018-07-23T13:32:32.661Z,37.39
2018-07-23T13:35:03.301Z,36.45
2018-07-23T13:37:35.389Z,35.74
2018-07-23T13:40:06.186Z,35.71
2018-07-23T13:42:37.077Z,35.78
2018-07-23T13:45:07.724Z,35.90
2018-07-23T13:47:38.753Z,35.14
2018-07-23T13:50:09.301Z,35.21
2018-07-23T13:52:40.381Z,35.31
2018-07-23T13:55:11.069Z,34.89
2018-07-23T13:57:41.816Z,35.10
2018-07-23T14:00:12.469Z,35.03
2018-07-23T14:02:43.342Z,35.03
2018-07-23T14:05:13.764Z,34.75
2018-07-23T14:07:44.656Z,35.37
2018-07-23T14:10:15.410Z,34.96
2018-07-23T14:12:46.450Z,35.08
2018-07-23T14:15:17.127Z,34.59
2018-07-23T14:17:47.877Z,34.39
2018-07-23T14:20:18.666Z,34.47
2018-07-23T14:22:49.377Z,34.33
2018-07-23T14:25:20.014Z,33.29
2018-07-23T14:27:50.737Z,33.12
2018-07-23T14:30:21.577Z,33.71
2018-07-23T14:32:52.276Z,32.24
2018-07-23T14:35:22.889Z,31.29
2018-07-23T14:37:53.707Z,31.30
2018-07-23T14:40:24.362Z,30.68
2018-07-23T14:42:55.151Z,30.66
2018-07-23T14:45:25.772Z,30.29
2018-07-23T14:47:55.932Z,30.58
2018-07-23T14:50:26.477Z,29.93
2018-07-23T14:52:57.481Z,30.07
2018-07-23T14:55:28.233Z,30.15
2018-07-23T14:57:59.269Z,29.47
2018-07-23T15:00:29.866Z,29.82
2018-07-23T15:03:00.513Z,29.95
2018-07-23T15:05:30.695Z,30.05
2018-07-23T15:08:01.899Z,29.39
2018-07-23T15:10:32.648Z,29.56
2018-07-23T15:13:03.534Z,29.41
2018-07-23T15:15:33.925Z,28.85
2018-07-23T15:18:04.454Z,28.76
2018-07-23T15:20:35.162Z,28.40
2018-07-23T15:23:06.022Z,28.50
2018-07-23T15:25:37.006Z,28.71
2018-07-23T15:28:07.724Z,29.30
2018-07-23T15:30:38.011Z,29.47
2018-07-23T15:33:09.110Z,29.82
2018-07-23T15:35:40.125Z,29.93
2018-07-23T15:38:10.896Z,29.65
2018-07-23T15:40:41.760Z,29.25
2018-07-23T15:43:26.358Z,29.10
2018-07-23T15:45:57.442Z,29.72
2018-07-23T15:48:28.035Z,29.91
2018-07-23T15:50:58.661Z,29.87
2018-07-23T15:53:30.073Z,30.18
2018-07-23T15:56:00.576Z,30.33
2018-07-23T15:58:30.932Z,29.90
2018-07-23T16:01:01.936Z,29.79
2018-07-23T16:03:35.753Z,29.50
2018-07-23T16:06:07.116Z,29.64
2018-07-23T16:08:37.588Z,30.02
2018-07-23T16:11:08.506Z,30.23
2018-07-23T16:13:38.841Z,30.04
2018-07-23T16:16:09.336Z,29.40
2018-07-23T16:18:40.119Z,29.68
2018-07-23T16:21:10.506Z,29.18
2018-07-23T16:23:40.737Z,29.12
2018-07-23T16:26:11.065Z,29.10
2018-07-23T16:28:41.430Z,28.88
2018-07-23T16:31:12.013Z,28.53
2018-07-23T16:33:42.700Z,28.94
2018-07-23T16:36:13.590Z,28.95
2018-07-23T16:38:44.255Z,28.92
2018-07-23T16:41:14.651Z,28.21
2018-07-23T16:43:44.918Z,28.59
2018-07-23T16:46:15.401Z,28.49
2018-07-23T16:48:45.696Z,28.02
2018-07-23T16:51:16.057Z,28.26
2018-07-23T16:53:46.562Z,27.70
2018-07-23T16:56:17.655Z,27.41
2018-07-23T16:58:47.921Z,27.45
2018-07-23T17:01:18.719Z,27.58
2018-07-23T17:03:49.462Z,27.62
2018-07-23T17:06:20.330Z,27.51
2018-07-23T17:08:51.205Z,27.60
2018-07-23T17:11:22.282Z,27.71
2018-07-23T17:13:52.815Z,27.72
2018-07-23T17:16:23.472Z,27.75
2018-07-23T17:18:53.894Z,27.59
2018-07-23T17:21:24.446Z,27.79
2018-07-23T17:23:55.258Z,28.14
2018-07-23T17:26:26.059Z,28.10
2018-07-23T17:28:56.933Z,28.26
2018-07-23T17:31:28.182Z,28.15
2018-07-23T17:33:59.311Z,28.37
2018-07-23T17:36:30.096Z,28.21
2018-07-23T17:39:00.969Z,27.96
2018-07-23T17:41:31.648Z,27.69
2018-07-23T17:44:03.016Z,27.75
2018-07-23T17:46:34.041Z,27.60
2018-07-23T17:49:04.916Z,27.20
2018-07-23T17:51:35.979Z,27.22
2018-07-23T17:54:06.612Z,27.11
2018-07-23T17:56:37.401Z,27.21
2018-07-23T17:59:07.881Z,27.31
2018-07-23T18:01:38.680Z,27.38
2018-07-23T18:04:09.059Z,27.48
2018-07-23T18:06:39.694Z,27.59
2018-07-23T18:09:12.659Z,27.68
2018-07-23T18:11:43.889Z,27.50
2018-07-23T18:14:14.772Z,27.64
2018-07-23T18:16:45.499Z,27.53
2018-07-23T18:19:16.465Z,27.50
2018-07-23T18:21:47.556Z,27.77
2018-07-23T18:24:18.064Z,27.59
2018-07-23T18:26:48.749Z,27.42
2018-07-23T18:29:19.372Z,27.65
2018-07-23T18:31:50.172Z,27.53
2018-07-23T18:34:20.748Z,27.49
2018-07-23T18:36:51.424Z,27.56
2018-07-23T18:39:21.966Z,27.66
2018-07-23T18:41:52.582Z,26.99
2018-07-23T18:44:22.913Z,26.81
2018-07-23T18:46:53.341Z,26.48
2018-07-23T18:49:41.557Z,26.68
2018-07-23T18:52:12.952Z,26.21
2018-07-23T18:54:44.841Z,26.44
2018-07-23T18:57:15.534Z,26.34
2018-07-23T18:59:46.247Z,26.26
2018-07-23T19:02:18.373Z,26.36
2018-07-23T19:04:49.003Z,26.54
2018-07-23T19:07:19.765Z,26.71
2018-07-23T19:09:50.505Z,26.52
2018-07-23T19:12:21.489Z,26.46
2018-07-23T19:14:52.089Z,26.07
2018-07-23T19:17:25.344Z,25.88
2018-07-23T19:19:56.101Z,25.58
2018-07-23T19:22:26.699Z,25.73
2018-07-23T19:24:56.860Z,26.17
2018-07-23T19:27:28.348Z,26.31
2018-07-23T19:29:58.696Z,26.60
2018-07-23T19:32:29.136Z,26.73
2018-07-23T19:34:59.476Z,26.76
2018-07-23T19:37:30.157Z,26.40
2018-07-23T19:40:00.470Z,26.54
2018-07-23T19:42:31.088Z,26.55
2018-07-23T19:45:01.702Z,26.40
2018-07-23T19:47:32.110Z,26.40
2018-07-23T19:50:02.815Z,26.18
2018-07-23T19:52:33.275Z,26.05
2018-07-23T19:55:03.688Z,25.88
2018-07-23T19:57:34.521Z,26.10
2018-07-23T20:00:05.633Z,25.99
2018-07-23T20:02:36.361Z,25.98
2018-07-23T20:05:07.801Z,26.12
2018-07-23T20:07:38.149Z,25.94
2018-07-23T20:10:08.521Z,25.91
2018-07-23T20:12:39.710Z,25.80
2018-07-23T20:15:10.146Z,25.95
2018-07-23T20:17:40.448Z,25.82
2018-07-23T20:20:10.890Z,26.09
2018-07-23T20:22:41.895Z,26.21
2018-07-23T20:25:12.606Z,26.21
2018-07-23T20:27:43.721Z,26.26
2018-07-23T20:30:14.257Z,26.24
2018-07-23T20:32:45.103Z,26.44
2018-07-23T20:35:15.795Z,26.26
2018-07-23T20:37:46.910Z,26.29
2018-07-23T20:40:17.718Z,26.22
2018-07-23T20:42:48.381Z,26.13
2018-07-23T20:45:19.073Z,26.33
2018-07-23T20:47:51.834Z,26.33
2018-07-23T20:50:23.339Z,26.33
2018-07-23T20:52:54.400Z,26.42
2018-07-23T20:55:24.997Z,26.47
2018-07-23T20:57:56.626Z,26.53
2018-07-23T21:00:27.623Z,26.40
2018-07-23T21:02:58.576Z,26.19
2018-07-23T21:05:29.276Z,26.43
2018-07-23T21:08:00.727Z,26.43
2018-07-23T21:10:31.516Z,26.40
2018-07-23T21:13:02.573Z,26.39
2018-07-23T21:15:33.678Z,26.27
2018-07-23T21:18:04.405Z,26.21
2018-07-23T21:20:35.884Z,26.20
2018-07-23T21:23:06.898Z,26.02
2018-07-23T21:25:37.860Z,26.06
2018-07-23T21:28:08.992Z,26.05
2018-07-23T21:30:39.377Z,25.97
2018-07-23T21:33:10.991Z,25.91
2018-07-23T21:35:41.784Z,26.06
2018-07-23T21:38:12.712Z,25.95
2018-07-23T21:40:43.426Z,25.98
2018-07-23T21:43:14.368Z,26.08
2018-07-23T21:45:44.209Z,25.94
2018-07-23T21:48:14.674Z,25.87
2018-07-23T21:50:45.672Z,25.87
2018-07-23T21:53:16.428Z,25.85
2018-07-23T21:55:46.954Z,26.10
2018-07-23T21:58:17.601Z,25.84
2018-07-23T22:00:47.873Z,25.92
2018-07-23T22:03:18.336Z,26.01
2018-07-23T22:05:48.971Z,25.97
2018-07-23T22:08:19.346Z,25.81
2018-07-23T22:10:50.178Z,25.98
2018-07-23T22:13:20.422Z,26.00
2018-07-23T22:15:51.553Z,26.03
2018-07-23T22:18:21.996Z,26.11
2018-07-23T22:20:52.284Z,26.05
2018-07-23T22:23:22.649Z,26.08
2018-07-23T22:25:52.916Z,26.02
2018-07-23T22:28:23.257Z,25.79
2018-07-23T22:30:53.797Z,26.02
2018-07-23T22:33:24.249Z,26.33
2018-07-23T22:35:54.545Z,26.32
2018-07-23T22:38:24.857Z,26.39
2018-07-23T22:40:55.472Z,26.21
2018-07-23T22:43:26.249Z,26.44
2018-07-23T22:45:56.586Z,26.46
2018-07-23T22:48:27.288Z,26.59
2018-07-23T22:50:57.524Z,26.46
2018-07-23T22:53:28.381Z,26.31
2018-07-23T22:56:00.657Z,26.31
2018-07-23T22:58:31.233Z,26.41
2018-07-23T23:01:01.638Z,26.33
2018-07-23T23:03:31.956Z,26.40
2018-07-23T23:06:02.204Z,26.52
2018-07-23T23:08:33.160Z,26.54
2018-07-23T23:11:03.846Z,26.53
2018-07-23T23:13:34.586Z,26.39
2018-07-23T23:16:05.269Z,26.34
2018-07-23T23:18:35.825Z,26.33
2018-07-23T23:21:06.325Z,26.38
2018-07-23T23:23:36.620Z,26.33
2018-07-23T23:26:07.041Z,26.38
2018-07-23T23:28:37.384Z,26.33
2018-07-23T23:31:07.236Z,26.10
2018-07-23T23:33:38.997Z,26.32
2018-07-23T23:36:09.233Z,26.50
2018-07-23T23:38:40.014Z,26.39
2018-07-23T23:41:10.346Z,26.49
2018-07-23T23:43:40.808Z,26.51
2018-07-23T23:46:11.118Z,26.37
2018-07-23T23:48:41.514Z,26.18
2018-07-23T23:51:11.744Z,25.82
2018-07-23T23:53:42.103Z,26.13
2018-07-23T23:56:12.397Z,26.27
2018-07-23T23:58:42.885Z,26.32
